sensor_id;sensor_type;location;lat;lon;timestamp;pressure;altitude;pressure_sealevel;temperature;humidity
59375;BME280;45172;55.006;73.460;2023-06-14T00:01:00;101173.34;;;7.41;89.33
59375;BME280;45172;55.006;73.460;2023-06-14T00:03:29;101168.16;;;7.65;88.75
59375;BME280;45172;55.006;73.460;2023-06-14T00:05:55;101138.19;;;7.63;89.25
59375;BME280;45172;55.006;73.460;2023-06-14T00:08:20;101172.59;;;8.35;88.89
59375;BME280;45172;55.006;73.460;2023-06-14T00:10:48;101127.78;;;8.36;87.84
59375;BME280;45172;55.006;73.460;2023-06-14T00:13:14;101166.41;;;8.82;86.97
59375;BME280;45172;55.006;73.460;2023-06-14T00:15:40;101153.63;;;8.68;86.76
59375;BME280;45172;55.006;73.460;2023-06-14T00:18:06;101168.47;;;9.15;85.51
59375;BME280;45172;55.006;73.460;2023-06-14T00:20:33;101157.59;;;9.07;85.99
59375;BME280;45172;55.006;73.460;2023-06-14T00:23:00;101133.81;;;9.07;85.60
59375;BME280;45172;55.006;73.460;2023-06-14T00:25:26;101157.91;;;9.70;83.58
59375;BME280;45172;55.006;73.460;2023-06-14T00:27:53;101173.13;;;10.05;82.74
59375;BME280;45172;55.006;73.460;2023-06-14T00:30:23;101168.53;;;9.99;82.39
59375;BME280;45172;55.006;73.460;2023-06-14T00:32:51;101175.22;;;10.17;81.32
59375;BME280;45172;55.006;73.460;2023-06-14T00:35:17;101179.06;;;10.55;79.00
59375;BME280;45172;55.006;73.460;2023-06-14T00:37:56;101164.50;;;10.72;76.91
59375;BME280;45172;55.006;73.460;2023-06-14T00:40:22;101174.06;;;10.99;75.48
59375;BME280;45172;55.006;73.460;2023-06-14T00:42:48;101146.47;;;10.92;73.87
59375;BME280;45172;55.006;73.460;2023-06-14T00:52:33;101165.69;;;11.52;nan
59375;BME280;45172;55.006;73.460;2023-06-14T00:55:00;101182.34;;;11.83;nan
59375;BME280;45172;55.006;73.460;2023-06-14T00:57:27;101146.81;;;11.76;nan
59375;BME280;45172;55.006;73.460;2023-06-14T00:59:52;101188.34;;;12.11;nan
59375;BME280;45172;55.006;73.460;2023-06-14T01:02:20;101183.34;;;12.25;nan
59375;BME280;45172;55.006;73.460;2023-06-14T01:04:47;101182.81;;;12.42;nan
59375;BME280;45172;55.006;73.460;2023-06-14T01:13:02;101198.78;;;12.86;nan
59375;BME280;45172;55.006;73.460;2023-06-14T01:15:30;101196.38;;;13.00;nan
59375;BME280;45172;55.006;73.460;2023-06-14T01:17:57;101196.66;;;13.14;nan
59375;BME280;45172;55.006;73.460;2023-06-14T01:20:31;101194.06;;;13.19;nan
59375;BME280;45172;55.006;73.460;2023-06-14T01:22:58;101195.84;;;13.20;nan
59375;BME280;45172;55.006;73.460;2023-06-14T01:25:24;101205.91;;;13.37;nan
59375;BME280;45172;55.006;73.460;2023-06-14T01:27:57;101201.78;;;13.54;nan
59375;BME280;45172;55.006;73.460;2023-06-14T01:30:24;101197.50;;;13.63;nan
59375;BME280;45172;55.006;73.460;2023-06-14T01:32:52;101178.22;;;13.78;nan
59375;BME280;45172;55.006;73.460;2023-06-14T01:35:21;101197.31;;;14.09;nan
59375;BME280;45172;55.006;73.460;2023-06-14T01:37:48;101159.06;;;14.04;nan
59375;BME280;45172;55.006;73.460;2023-06-14T01:40:15;101168.25;;;14.28;nan
59375;BME280;45172;55.006;73.460;2023-06-14T01:42:59;101196.28;;;14.67;nan
59375;BME280;45172;55.006;73.460;2023-06-14T01:45:27;101159.81;;;14.63;nan
59375;BME280;45172;55.006;73.460;2023-06-14T01:47:55;101173.41;;;14.80;nan
59375;BME280;45172;55.006;73.460;2023-06-14T01:50:22;101160.06;;;14.83;nan
59375;BME280;45172;55.006;73.460;2023-06-14T01:52:48;101202.28;;;15.25;nan
59375;BME280;45172;55.006;73.460;2023-06-14T01:55:14;101167.63;;;15.26;nan
59375;BME280;45172;55.006;73.460;2023-06-14T01:57:41;101147.22;;;15.31;nan
59375;BME280;45172;55.006;73.460;2023-06-14T02:00:07;101189.34;;;15.70;nan
59375;BME280;45172;55.006;73.460;2023-06-14T02:02:36;101195.63;;;15.75;nan
59375;BME280;45172;55.006;73.460;2023-06-14T02:05:02;101180.44;;;15.68;nan
59375;BME280;45172;55.006;73.460;2023-06-14T02:07:28;101187.63;;;15.81;nan
59375;BME280;45172;55.006;73.460;2023-06-14T02:09:54;101170.84;;;15.95;nan
59375;BME280;45172;55.006;73.460;2023-06-14T02:12:20;101163.75;;;15.95;nan
59375;BME280;45172;55.006;73.460;2023-06-14T02:14:48;101179.03;;;16.18;nan
59375;BME280;45172;55.006;73.460;2023-06-14T02:17:14;101184.47;;;16.43;nan
59375;BME280;45172;55.006;73.460;2023-06-14T02:19:41;101183.63;;;16.58;nan
59375;BME280;45172;55.006;73.460;2023-06-14T02:22:08;101180.13;;;16.75;nan
59375;BME280;45172;55.006;73.460;2023-06-14T02:24:34;101185.53;;;16.87;nan
59375;BME280;45172;55.006;73.460;2023-06-14T02:27:02;101157.00;;;16.86;nan
59375;BME280;45172;55.006;73.460;2023-06-14T02:29:28;101186.53;;;17.22;nan
59375;BME280;45172;55.006;73.460;2023-06-14T02:31:56;101180.28;;;17.40;nan
59375;BME280;45172;55.006;73.460;2023-06-14T02:34:23;101176.72;;;17.41;nan
59375;BME280;45172;55.006;73.460;2023-06-14T02:36:49;101181.19;;;17.45;nan
59375;BME280;45172;55.006;73.460;2023-06-14T02:39:16;101179.41;;;17.50;nan
59375;BME280;45172;55.006;73.460;2023-06-14T02:41:44;101144.59;;;17.46;nan
59375;BME280;45172;55.006;73.460;2023-06-14T02:44:10;101187.44;;;17.75;nan
59375;BME280;45172;55.006;73.460;2023-06-14T02:46:38;101143.72;;;17.45;nan
59375;BME280;45172;55.006;73.460;2023-06-14T02:49:05;101144.56;;;17.61;nan
59375;BME280;45172;55.006;73.460;2023-06-14T02:51:31;101169.53;;;17.85;nan
59375;BME280;45172;55.006;73.460;2023-06-14T02:53:57;101172.22;;;17.85;nan
59375;BME280;45172;55.006;73.460;2023-06-14T02:56:23;101178.44;;;18.00;nan
59375;BME280;45172;55.006;73.460;2023-06-14T02:58:51;101141.91;;;17.75;nan
59375;BME280;45172;55.006;73.460;2023-06-14T03:01:18;101171.34;;;17.91;nan
59375;BME280;45172;55.006;73.460;2023-06-14T03:03:46;101179.34;;;17.97;nan
59375;BME280;45172;55.006;73.460;2023-06-14T03:06:12;101124.03;;;17.68;nan
59375;BME280;45172;55.006;73.460;2023-06-14T03:08:40;101162.38;;;17.98;nan
59375;BME280;45172;55.006;73.460;2023-06-14T03:11:07;101163.25;;;18.19;nan
59375;BME280;45172;55.006;73.460;2023-06-14T03:13:35;101141.81;;;18.14;nan
59375;BME280;45172;55.006;73.460;2023-06-14T03:16:01;101113.22;;;18.12;nan
59375;BME280;45172;55.006;73.460;2023-06-14T03:18:30;101162.31;;;18.32;nan
59375;BME280;45172;55.006;73.460;2023-06-14T03:21:04;101158.72;;;18.33;nan
59375;BME280;45172;55.006;73.460;2023-06-14T03:23:30;101151.63;;;18.29;nan
59375;BME280;45172;55.006;73.460;2023-06-14T03:25:57;101113.19;;;18.16;nan
59375;BME280;45172;55.006;73.460;2023-06-14T03:28:23;101131.91;;;18.33;nan
59375;BME280;45172;55.006;73.460;2023-06-14T03:30:49;101137.22;;;18.43;nan
59375;BME280;45172;55.006;73.460;2023-06-14T03:33:15;101132.75;;;18.46;nan
59375;BME280;45172;55.006;73.460;2023-06-14T03:35:41;101117.47;;;18.59;nan
59375;BME280;45172;55.006;73.460;2023-06-14T03:38:07;101102.38;;;18.46;nan
59375;BME280;45172;55.006;73.460;2023-06-14T03:40:33;101153.19;;;18.71;nan
59375;BME280;45172;55.006;73.460;2023-06-14T03:43:02;101148.66;;;18.82;nan
59375;BME280;45172;55.006;73.460;2023-06-14T03:45:28;101124.56;;;18.71;nan
59375;BME280;45172;55.006;73.460;2023-06-14T03:47:54;101163.84;;;18.88;nan
59375;BME280;45172;55.006;73.460;2023-06-14T03:50:20;101089.81;;;18.54;nan
59375;BME280;45172;55.006;73.460;2023-06-14T03:52:48;101153.03;;;19.02;nan
59375;BME280;45172;55.006;73.460;2023-06-14T03:55:14;101152.91;;;19.24;nan
59375;BME280;45172;55.006;73.460;2023-06-14T03:57:41;101139.38;;;19.35;nan
59375;BME280;45172;55.006;73.460;2023-06-14T04:00:09;101122.31;;;19.40;nan
59375;BME280;45172;55.006;73.460;2023-06-14T04:02:35;101123.22;;;19.39;nan
59375;BME280;45172;55.006;73.460;2023-06-14T04:05:02;101142.78;;;19.54;nan
59375;BME280;45172;55.006;73.460;2023-06-14T04:07:28;101131.22;;;19.44;nan
59375;BME280;45172;55.006;73.460;2023-06-14T04:09:55;101110.59;;;19.46;nan
59375;BME280;45172;55.006;73.460;2023-06-14T04:12:21;101126.53;;;19.66;nan
59375;BME280;45172;55.006;73.460;2023-06-14T04:14:47;101130.88;;;19.81;nan
59375;BME280;45172;55.006;73.460;2023-06-14T04:17:13;101130.78;;;19.91;nan
59375;BME280;45172;55.006;73.460;2023-06-14T04:19:40;101131.69;;;19.88;nan
59375;BME280;45172;55.006;73.460;2023-06-14T04:22:06;101127.19;;;19.95;nan
59375;BME280;45172;55.006;73.460;2023-06-14T04:24:32;101134.34;;;19.96;nan
59375;BME280;45172;55.006;73.460;2023-06-14T04:26:58;101128.03;;;19.98;nan
59375;BME280;45172;55.006;73.460;2023-06-14T04:29:25;101115.47;;;20.01;nan
59375;BME280;45172;55.006;73.460;2023-06-14T04:31:54;101125.19;;;20.11;nan
59375;BME280;45172;55.006;73.460;2023-06-14T04:34:20;101104.66;;;20.07;nan
59375;BME280;45172;55.006;73.460;2023-06-14T04:36:47;101103.00;;;19.95;nan
59375;BME280;45172;55.006;73.460;2023-06-14T04:39:19;101116.28;;;20.07;nan
59375;BME280;45172;55.006;73.460;2023-06-14T04:41:46;101111.81;;;20.08;nan
59375;BME280;45172;55.006;73.460;2023-06-14T04:44:12;101120.78;;;20.07;nan
59375;BME280;45172;55.006;73.460;2023-06-14T04:46:39;101107.38;;;20.02;nan
59375;BME280;45172;55.006;73.460;2023-06-14T04:49:15;101078.09;;;19.71;nan
59375;BME280;45172;55.006;73.460;2023-06-14T04:56:00;101094.44;;;20.32;nan
59375;BME280;45172;55.006;73.460;2023-06-14T05:07:27;101093.38;;;20.47;nan
59375;BME280;45172;55.006;73.460;2023-06-14T05:14:11;101044.22;;;20.34;nan
59375;BME280;45172;55.006;73.460;2023-06-14T05:20:18;101066.00;;;20.78;nan
59375;BME280;45172;55.006;73.460;2023-06-14T05:22:44;101082.88;;;20.90;nan
59375;BME280;45172;55.006;73.460;2023-06-14T05:25:10;101072.03;;;20.94;nan
59375;BME280;45172;55.006;73.460;2023-06-14T05:27:36;101058.66;;;20.90;nan
59375;BME280;45172;55.006;73.460;2023-06-14T05:30:04;101079.06;;;21.06;nan
59375;BME280;45172;55.006;73.460;2023-06-14T05:32:30;101070.66;;;21.24;nan
59375;BME280;45172;55.006;73.460;2023-06-14T05:34:57;101067.78;;;21.34;nan
59375;BME280;45172;55.006;73.460;2023-06-14T05:37:23;101059.63;;;21.39;nan
59375;BME280;45172;55.006;73.460;2023-06-14T05:39:49;101059.81;;;21.28;nan
59375;BME280;45172;55.006;73.460;2023-06-14T05:42:15;101073.09;;;21.39;nan
59375;BME280;45172;55.006;73.460;2023-06-14T05:44:41;101059.38;;;21.53;nan
59375;BME280;45172;55.006;73.460;2023-06-14T05:47:07;101059.22;;;21.61;nan
59375;BME280;45172;55.006;73.460;2023-06-14T05:49:33;101046.72;;;21.57;nan
59375;BME280;45172;55.006;73.460;2023-06-14T05:51:59;101064.44;;;21.70;nan
59375;BME280;45172;55.006;73.460;2023-06-14T05:54:25;101051.81;;;21.74;nan
59375;BME280;45172;55.006;73.460;2023-06-14T05:56:51;101056.97;;;21.86;nan
59375;BME280;45172;55.006;73.460;2023-06-14T05:59:17;101057.69;;;21.95;nan
59375;BME280;45172;55.006;73.460;2023-06-14T06:01:43;101060.38;;;21.95;nan
59375;BME280;45172;55.006;73.460;2023-06-14T06:04:09;101039.56;;;22.01;nan
59375;BME280;45172;55.006;73.460;2023-06-14T06:06:38;101040.28;;;22.10;nan
59375;BME280;45172;55.006;73.460;2023-06-14T06:09:05;101044.31;;;21.88;nan
59375;BME280;45172;55.006;73.460;2023-06-14T06:11:32;101026.44;;;21.84;nan
59375;BME280;45172;55.006;73.460;2023-06-14T06:13:59;101014.03;;;21.75;nan
59375;BME280;45172;55.006;73.460;2023-06-14T06:16:25;101015.44;;;21.95;nan
59375;BME280;45172;55.006;73.460;2023-06-14T06:18:51;101024.88;;;22.16;nan
59375;BME280;45172;55.006;73.460;2023-06-14T06:21:17;101033.78;;;22.20;nan
59375;BME280;45172;55.006;73.460;2023-06-14T06:23:43;101014.78;;;22.25;nan
59375;BME280;45172;55.006;73.460;2023-06-14T06:26:10;101029.63;;;22.44;nan
59375;BME280;45172;55.006;73.460;2023-06-14T06:28:37;101010.69;;;22.46;nan
59375;BME280;45172;55.006;73.460;2023-06-14T06:31:03;100990.38;;;22.31;nan
59375;BME280;45172;55.006;73.460;2023-06-14T06:33:29;101014.09;;;22.56;nan
59375;BME280;45172;55.006;73.460;2023-06-14T06:35:55;101019.81;;;22.40;nan
59375;BME280;45172;55.006;73.460;2023-06-14T06:38:22;100984.03;;;22.32;nan
59375;BME280;45172;55.006;73.460;2023-06-14T06:40:48;101002.09;;;22.69;nan
59375;BME280;45172;55.006;73.460;2023-06-14T06:43:14;100991.97;;;22.78;nan
59375;BME280;45172;55.006;73.460;2023-06-14T06:45:42;100948.13;;;22.66;nan
59375;BME280;45172;55.006;73.460;2023-06-14T06:48:10;100982.78;;;22.85;nan
59375;BME280;45172;55.006;73.460;2023-06-14T06:50:36;100986.88;;;23.02;nan
59375;BME280;45172;55.006;73.460;2023-06-14T06:53:02;100983.53;;;23.25;nan
59375;BME280;45172;55.006;73.460;2023-06-14T06:55:29;100982.44;;;23.34;nan
59375;BME280;45172;55.006;73.460;2023-06-14T06:57:55;100961.59;;;23.04;nan
59375;BME280;45172;55.006;73.460;2023-06-14T07:00:21;100939.91;;;23.06;nan
59375;BME280;45172;55.006;73.460;2023-06-14T07:02:48;100969.97;;;23.26;nan
59375;BME280;45172;55.006;73.460;2023-06-14T07:05:14;100958.19;;;23.31;nan
59375;BME280;45172;55.006;73.460;2023-06-14T07:07:40;100960.00;;;23.30;nan
59375;BME280;45172;55.006;73.460;2023-06-14T07:10:07;100964.84;;;23.50;nan
59375;BME280;45172;55.006;73.460;2023-06-14T07:12:33;100971.19;;;23.49;nan
59375;BME280;45172;55.006;73.460;2023-06-14T07:15:08;100944.19;;;23.48;nan
59375;BME280;45172;55.006;73.460;2023-06-14T07:17:35;100966.88;;;23.42;nan
59375;BME280;45172;55.006;73.460;2023-06-14T07:20:03;100953.72;;;23.28;nan
59375;BME280;45172;55.006;73.460;2023-06-14T07:22:40;100958.63;;;23.47;nan
59375;BME280;45172;55.006;73.460;2023-06-14T07:25:10;100941.03;;;23.63;nan
59375;BME280;45172;55.006;73.460;2023-06-14T07:27:42;100944.44;;;23.70;nan
59375;BME280;45172;55.006;73.460;2023-06-14T07:30:10;100950.00;;;23.96;nan
59375;BME280;45172;55.006;73.460;2023-06-14T07:32:36;100939.56;;;24.13;nan
59375;BME280;45172;55.006;73.460;2023-06-14T07:35:02;100926.13;;;23.80;nan
59375;BME280;45172;55.006;73.460;2023-06-14T07:37:29;100874.19;;;23.69;nan
59375;BME280;45172;55.006;73.460;2023-06-14T07:39:55;100929.69;;;24.12;nan
59375;BME280;45172;55.006;73.460;2023-06-14T07:42:21;100930.66;;;24.10;nan
59375;BME280;45172;55.006;73.460;2023-06-14T07:44:48;100928.06;;;24.05;nan
59375;BME280;45172;55.006;73.460;2023-06-14T07:47:14;100891.28;;;23.99;nan
59375;BME280;45172;55.006;73.460;2023-06-14T07:49:40;100901.75;;;24.10;nan
59375;BME280;45172;55.006;73.460;2023-06-14T07:52:07;100886.72;;;24.00;nan
59375;BME280;45172;55.006;73.460;2023-06-14T07:54:32;100880.53;;;23.96;nan
59375;BME280;45172;55.006;73.460;2023-06-14T07:56:59;100907.16;;;24.10;nan
59375;BME280;45172;55.006;73.460;2023-06-14T07:59:26;100884.19;;;23.95;nan
59375;BME280;45172;55.006;73.460;2023-06-14T08:01:52;100894.22;;;24.20;nan
59375;BME280;45172;55.006;73.460;2023-06-14T08:04:18;100921.72;;;24.07;nan
59375;BME280;45172;55.006;73.460;2023-06-14T08:06:44;100861.94;;;23.85;nan
59375;BME280;45172;55.006;73.460;2023-06-14T08:09:12;100879.50;;;24.29;nan
59375;BME280;45172;55.006;73.460;2023-06-14T08:11:38;100881.34;;;24.55;nan
59375;BME280;45172;55.006;73.460;2023-06-14T08:14:05;100905.72;;;24.55;nan
59375;BME280;45172;55.006;73.460;2023-06-14T08:16:31;100909.56;;;24.48;nan
59375;BME280;45172;55.006;73.460;2023-06-14T08:18:58;100911.88;;;24.32;nan
59375;BME280;45172;55.006;73.460;2023-06-14T08:21:23;100911.59;;;24.13;nan
59375;BME280;45172;55.006;73.460;2023-06-14T08:23:52;100907.03;;;24.15;nan
59375;BME280;45172;55.006;73.460;2023-06-14T08:26:18;100908.09;;;24.09;nan
59375;BME280;45172;55.006;73.460;2023-06-14T08:28:45;100904.25;;;24.16;nan
59375;BME280;45172;55.006;73.460;2023-06-14T08:31:11;100892.94;;;24.03;nan
59375;BME280;45172;55.006;73.460;2023-06-14T08:33:38;100905.41;;;24.09;nan
59375;BME280;45172;55.006;73.460;2023-06-14T08:36:09;100904.91;;;24.25;nan
59375;BME280;45172;55.006;73.460;2023-06-14T08:38:37;100892.19;;;23.98;nan
59375;BME280;45172;55.006;73.460;2023-06-14T08:41:04;100894.53;;;23.80;nan
59375;BME280;45172;55.006;73.460;2023-06-14T08:43:33;100883.25;;;23.66;nan
59375;BME280;45172;55.006;73.460;2023-06-14T08:46:01;100882.88;;;23.50;nan
59375;BME280;45172;55.006;73.460;2023-06-14T08:48:29;100812.78;;;23.10;nan
59375;BME280;45172;55.006;73.460;2023-06-14T08:51:02;100866.81;;;23.44;nan
59375;BME280;45172;55.006;73.460;2023-06-14T08:53:33;100834.72;;;23.33;nan
59375;BME280;45172;55.006;73.460;2023-06-14T08:56:03;100868.88;;;23.35;nan
59375;BME280;45172;55.006;73.460;2023-06-14T08:58:31;100832.75;;;23.06;nan
59375;BME280;45172;55.006;73.460;2023-06-14T09:01:01;100828.34;;;23.02;nan
59375;BME280;45172;55.006;73.460;2023-06-14T09:03:27;100810.81;;;23.17;nan
59375;BME280;45172;55.006;73.460;2023-06-14T09:05:57;100848.78;;;23.44;nan
59375;BME280;45172;55.006;73.460;2023-06-14T09:08:26;100823.19;;;23.26;nan
59375;BME280;45172;55.006;73.460;2023-06-14T09:10:53;100850.09;;;23.31;nan
59375;BME280;45172;55.006;73.460;2023-06-14T09:13:36;100835.78;;;23.25;nan
59375;BME280;45172;55.006;73.460;2023-06-14T09:16:02;100805.09;;;22.96;nan
59375;BME280;45172;55.006;73.460;2023-06-14T09:18:37;100845.66;;;22.95;nan
59375;BME280;45172;55.006;73.460;2023-06-14T09:21:07;100823.53;;;22.82;nan
59375;BME280;45172;55.006;73.460;2023-06-14T09:23:37;100835.56;;;23.33;nan
59375;BME280;45172;55.006;73.460;2023-06-14T09:26:12;100833.63;;;23.69;nan
59375;BME280;45172;55.006;73.460;2023-06-14T09:28:46;100824.06;;;23.85;nan
59375;BME280;45172;55.006;73.460;2023-06-14T09:31:17;100827.63;;;24.16;nan
59375;BME280;45172;55.006;73.460;2023-06-14T09:33:48;100821.06;;;24.48;nan
59375;BME280;45172;55.006;73.460;2023-06-14T09:36:20;100830.03;;;24.76;nan
59375;BME280;45172;55.006;73.460;2023-06-14T09:38:57;100820.28;;;24.97;nan
59375;BME280;45172;55.006;73.460;2023-06-14T09:41:40;100808.69;;;24.94;nan
59375;BME280;45172;55.006;73.460;2023-06-14T09:44:07;100805.84;;;24.97;nan
59375;BME280;45172;55.006;73.460;2023-06-14T09:46:37;100809.50;;;25.20;nan
59375;BME280;45172;55.006;73.460;2023-06-14T09:49:04;100811.63;;;25.35;nan
59375;BME280;45172;55.006;73.460;2023-06-14T09:55:52;100784.41;;;25.38;nan
59375;BME280;45172;55.006;73.460;2023-06-14T10:06:57;100774.84;;;25.52;nan
59375;BME280;45172;55.006;73.460;2023-06-14T10:13:41;100778.97;;;25.38;nan
59375;BME280;45172;55.006;73.460;2023-06-14T10:22:42;100757.16;;;25.41;nan
59375;BME280;45172;55.006;73.460;2023-06-14T10:25:29;100727.19;;;25.44;nan
59375;BME280;45172;55.006;73.460;2023-06-14T10:28:17;100750.09;;;25.82;nan
59375;BME280;45172;55.006;73.460;2023-06-14T10:31:03;100727.44;;;25.83;nan
59375;BME280;45172;55.006;73.460;2023-06-14T10:33:34;100720.00;;;25.88;nan
59375;BME280;45172;55.006;73.460;2023-06-14T10:39:08;100731.97;;;26.05;nan
59375;BME280;45172;55.006;73.460;2023-06-14T10:41:40;100735.78;;;26.21;nan
59375;BME280;45172;55.006;73.460;2023-06-14T10:47:00;100728.28;;;26.06;nan
59375;BME280;45172;55.006;73.460;2023-06-14T10:49:45;100716.31;;;26.11;nan
59375;BME280;45172;55.006;73.460;2023-06-14T11:21:25;100671.66;;;26.59;nan
59375;BME280;45172;55.006;73.460;2023-06-14T11:28:15;100672.28;;;26.85;nan
59375;BME280;45172;55.006;73.460;2023-06-14T11:34:58;100650.88;;;26.98;nan
59375;BME280;45172;55.006;73.460;2023-06-14T11:37:26;100648.38;;;26.93;nan
59375;BME280;45172;55.006;73.460;2023-06-14T11:39:57;100620.00;;;26.79;nan
59375;BME280;45172;55.006;73.460;2023-06-14T11:42:27;100646.28;;;26.98;nan
59375;BME280;45172;55.006;73.460;2023-06-14T11:44:55;100642.53;;;26.81;nan
59375;BME280;45172;55.006;73.460;2023-06-14T11:47:24;100637.78;;;26.67;nan
59375;BME280;45172;55.006;73.460;2023-06-14T11:49:50;100616.69;;;26.53;nan
59375;BME280;45172;55.006;73.460;2023-06-14T11:52:16;100603.13;;;26.53;nan
59375;BME280;45172;55.006;73.460;2023-06-14T11:54:43;100634.63;;;26.37;nan
59375;BME280;45172;55.006;73.460;2023-06-14T11:57:09;100614.56;;;26.20;nan
59375;BME280;45172;55.006;73.460;2023-06-14T11:59:40;100570.88;;;26.06;nan
59375;BME280;45172;55.006;73.460;2023-06-14T12:02:07;100616.88;;;26.49;nan
59375;BME280;45172;55.006;73.460;2023-06-14T12:04:33;100593.41;;;26.48;nan
59375;BME280;45172;55.006;73.460;2023-06-14T12:07:12;100615.44;;;26.61;nan
59375;BME280;45172;55.006;73.460;2023-06-14T12:12:31;100607.81;;;26.88;nan
59375;BME280;45172;55.006;73.460;2023-06-14T12:15:03;100605.38;;;26.82;nan
59375;BME280;45172;55.006;73.460;2023-06-14T12:17:32;100618.25;;;26.98;nan
59375;BME280;45172;55.006;73.460;2023-06-14T12:20:04;100580.63;;;26.88;nan
59375;BME280;45172;55.006;73.460;2023-06-14T12:22:32;100575.19;;;26.88;nan
59375;BME280;45172;55.006;73.460;2023-06-14T12:24:58;100591.03;;;27.17;nan
59375;BME280;45172;55.006;73.460;2023-06-14T12:27:25;100601.19;;;27.48;nan
59375;BME280;45172;55.006;73.460;2023-06-14T12:30:02;100571.47;;;27.63;nan
59375;BME280;45172;55.006;73.460;2023-06-14T12:32:29;100583.88;;;27.86;nan
59375;BME280;45172;55.006;73.460;2023-06-14T12:34:55;100602.69;;;27.91;nan
59375;BME280;45172;55.006;73.460;2023-06-14T12:37:21;100595.38;;;27.92;nan
59375;BME280;45172;55.006;73.460;2023-06-14T12:39:47;100540.94;;;27.58;nan
59375;BME280;45172;55.006;73.460;2023-06-14T12:42:13;100589.13;;;27.89;nan
59375;BME280;45172;55.006;73.460;2023-06-14T12:44:40;100572.19;;;27.84;nan
59375;BME280;45172;55.006;73.460;2023-06-14T12:47:07;100575.59;;;28.06;nan
59375;BME280;45172;55.006;73.460;2023-06-14T12:49:33;100556.56;;;27.88;nan
59375;BME280;45172;55.006;73.460;2023-06-14T12:51:59;100582.66;;;27.92;nan
59375;BME280;45172;55.006;73.460;2023-06-14T12:54:26;100588.63;;;27.99;nan
59375;BME280;45172;55.006;73.460;2023-06-14T12:56:53;100585.59;;;28.05;nan
59375;BME280;45172;55.006;73.460;2023-06-14T12:59:20;100567.81;;;28.15;nan
59375;BME280;45172;55.006;73.460;2023-06-14T13:01:46;100549.59;;;28.00;nan
59375;BME280;45172;55.006;73.460;2023-06-14T13:04:15;100576.13;;;28.12;nan
59375;BME280;45172;55.006;73.460;2023-06-14T13:06:41;100582.06;;;28.21;nan
59375;BME280;45172;55.006;73.460;2023-06-14T13:09:07;100566.16;;;27.95;nan
59375;BME280;45172;55.006;73.460;2023-06-14T13:11:34;100567.22;;;27.75;nan
59375;BME280;45172;55.006;73.460;2023-06-14T13:13:59;100563.19;;;27.29;nan
59375;BME280;45172;55.006;73.460;2023-06-14T13:16:25;100559.13;;;27.20;nan
59375;BME280;45172;55.006;73.460;2023-06-14T13:18:51;100515.63;;;27.20;nan
59375;BME280;45172;55.006;73.460;2023-06-14T13:21:17;100541.00;;;27.39;nan
59375;BME280;45172;55.006;73.460;2023-06-14T13:23:43;100554.66;;;27.72;nan
59375;BME280;45172;55.006;73.460;2023-06-14T13:26:09;100537.03;;;27.97;nan
59375;BME280;45172;55.006;73.460;2023-06-14T13:28:36;100532.44;;;28.32;nan
59375;BME280;45172;55.006;73.460;2023-06-14T13:31:02;100545.72;;;28.38;nan
59375;BME280;45172;55.006;73.460;2023-06-14T13:33:28;100537.22;;;28.44;nan
59375;BME280;45172;55.006;73.460;2023-06-14T13:35:54;100536.47;;;28.56;nan
59375;BME280;45172;55.006;73.460;2023-06-14T13:38:20;100543.69;;;28.74;nan
59375;BME280;45172;55.006;73.460;2023-06-14T13:40:46;100543.25;;;28.81;nan
59375;BME280;45172;55.006;73.460;2023-06-14T13:43:16;100537.88;;;28.80;nan
59375;BME280;45172;55.006;73.460;2023-06-14T13:45:42;100539.75;;;28.95;nan
59375;BME280;45172;55.006;73.460;2023-06-14T13:48:09;100534.50;;;28.92;nan
59375;BME280;45172;55.006;73.460;2023-06-14T13:50:34;100536.13;;;28.95;nan
59375;BME280;45172;55.006;73.460;2023-06-14T13:53:02;100536.56;;;28.71;nan
59375;BME280;45172;55.006;73.460;2023-06-14T13:55:28;100533.41;;;28.63;nan
59375;BME280;45172;55.006;73.460;2023-06-14T13:57:54;100533.59;;;28.60;nan
59375;BME280;45172;55.006;73.460;2023-06-14T14:00:21;100509.25;;;28.24;nan
59375;BME280;45172;55.006;73.460;2023-06-14T14:02:47;100496.72;;;28.04;nan
59375;BME280;45172;55.006;73.460;2023-06-14T14:05:16;100519.53;;;28.01;nan
59375;BME280;45172;55.006;73.460;2023-06-14T14:07:42;100522.44;;;27.98;nan
59375;BME280;45172;55.006;73.460;2023-06-14T14:10:09;100517.38;;;27.57;nan
59375;BME280;45172;55.006;73.460;2023-06-14T14:12:35;100502.41;;;27.13;nan
59375;BME280;45172;55.006;73.460;2023-06-14T14:15:05;100470.63;;;26.41;nan
59375;BME280;45172;55.006;73.460;2023-06-14T14:17:38;100530.56;;;26.17;nan
59375;BME280;45172;55.006;73.460;2023-06-14T14:20:05;100511.00;;;25.48;nan
59375;BME280;45172;55.006;73.460;2023-06-14T14:22:31;100493.09;;;24.82;nan
59375;BME280;45172;55.006;73.460;2023-06-14T14:24:58;100524.78;;;24.56;nan
59375;BME280;45172;55.006;73.460;2023-06-14T14:27:24;100519.75;;;24.23;nan
59375;BME280;45172;55.006;73.460;2023-06-14T14:29:50;100482.91;;;23.71;nan
59375;BME280;45172;55.006;73.460;2023-06-14T14:32:16;100517.28;;;23.67;nan
59375;BME280;45172;55.006;73.460;2023-06-14T14:34:42;100517.97;;;23.48;nan
59375;BME280;45172;55.006;73.460;2023-06-14T14:37:08;100468.38;;;22.97;nan
59375;BME280;45172;55.006;73.460;2023-06-14T14:39:34;100506.84;;;23.04;nan
59375;BME280;45172;55.006;73.460;2023-06-14T14:42:01;100470.19;;;22.69;nan
59375;BME280;45172;55.006;73.460;2023-06-14T14:44:27;100476.97;;;22.54;nan
59375;BME280;45172;55.006;73.460;2023-06-14T14:46:53;100509.19;;;22.59;nan